Time;durP1;ratioP1;P1;durP2;ratioP2;P2;SDS_P1;SDS_P2;PMS_P1;PMS_P2;Temp;Humidity;BMP_temperature;BMP_pressure;BME280_temperature;BME280_humidity;BME280_pressure;Samples;Min_cycle;Max_cycle;Signal;HPM_P1;HPM_P2
2022/10/27 00:01:31;;;;;;;21.33;13.80;;;;;;;9.75;100.00;99586.53;5000154;28;20084;-62
2022/10/27 00:03:57;;;;;;;18.13;12.85;;;;;;;9.76;100.00;99587.38;4997035;28;20046;-61
2022/10/27 00:06:23;;;;;;;20.27;13.57;;;;;;;9.73;100.00;99593.34;4996118;28;20048;-63
2022/10/27 00:08:50;;;;;;;17.10;11.73;;;;;;;9.81;100.00;99586.50;4998167;28;20046;-62
2022/10/27 00:11:16;;;;;;;17.13;10.52;;;;;;;10.03;100.00;99593.31;5000039;28;20050;-62
2022/10/27 00:13:42;;;;;;;19.27;10.20;;;;;;;10.05;100.00;99576.25;5000266;28;20408;-62
2022/10/27 00:16:15;;;;;;;16.50;10.70;;;;;;;10.18;100.00;99596.75;4998406;28;20038;-61
2022/10/27 00:18:43;;;;;;;17.30;9.55;;;;;;;10.01;100.00;99579.63;5000928;28;20038;-61
2022/10/27 00:21:11;;;;;;;13.70;9.68;;;;;;;10.03;100.00;99577.94;4998970;28;20065;-61
2022/10/27 00:23:37;;;;;;;12.73;9.50;;;;;;;10.08;100.00;99601.84;5003477;28;20034;-62
2022/10/27 00:26:04;;;;;;;13.80;9.48;;;;;;;10.05;100.00;99601.88;5004127;28;20740;-61
2022/10/27 00:28:30;;;;;;;14.15;9.35;;;;;;;9.99;100.00;99601.00;5003145;28;20161;-62
2022/10/27 00:31:10;;;;;;;13.10;9.95;;;;;;;9.88;100.00;99590.78;5002299;28;20231;-62
2022/10/27 00:33:36;;;;;;;17.38;10.77;;;;;;;9.81;100.00;99585.66;5002995;28;20336;-62
2022/10/27 00:36:07;;;;;;;14.70;9.98;;;;;;;9.86;100.00;99602.72;5003241;28;20054;-62
2022/10/27 00:38:33;;;;;;;14.27;9.48;;;;;;;9.80;100.00;99607.84;5002361;28;20465;-62
2022/10/27 00:40:59;;;;;;;14.48;10.18;;;;;;;9.76;100.00;99607.88;5001999;28;20034;-63
2022/10/27 00:43:26;;;;;;;13.18;9.82;;;;;;;9.63;100.00;99592.47;5003409;28;20456;-62
2022/10/27 00:45:54;;;;;;;13.65;10.23;;;;;;;9.58;100.00;99591.66;5003791;28;20037;-62
2022/10/27 00:48:23;;;;;;;14.40;10.35;;;;;;;9.68;100.00;99620.63;5003717;28;20037;-62
2022/10/27 00:50:48;;;;;;;15.95;11.50;;;;;;;9.61;100.00;99612.13;4999690;28;20042;-62
2022/10/27 00:53:14;;;;;;;13.55;9.23;;;;;;;9.50;100.00;99605.28;5004521;28;20034;-62
2022/10/27 00:55:40;;;;;;;18.38;11.15;;;;;;;9.54;100.00;99622.34;5003428;28;20388;-62
2022/10/27 00:58:11;;;;;;;12.68;9.02;;;;;;;9.49;100.00;99619.78;5003876;28;20465;-62
2022/10/27 01:00:40;;;;;;;19.10;9.65;;;;;;;9.43;100.00;99619.78;5003619;28;20072;-61
2022/10/27 01:03:08;;;;;;;16.27;10.50;;;;;;;9.37;100.00;99621.47;5004127;28;20069;-62
2022/10/27 01:05:34;;;;;;;11.93;10.10;;;;;;;9.24;100.00;99600.13;5002626;28;20034;-62
2022/10/27 01:08:03;;;;;;;12.00;9.98;;;;;;;9.28;100.00;99617.19;5003543;28;20042;-61
2022/10/27 01:10:29;;;;;;;11.85;9.88;;;;;;;9.30;100.00;99601.81;4999414;28;20077;-61
2022/10/27 01:12:56;;;;;;;15.07;9.18;;;;;;;9.43;100.00;99624.88;5000936;28;20487;-61
2022/10/27 01:15:39;;;;;;;14.70;9.55;;;;;;;9.41;100.00;99625.75;5002434;28;20053;-61
2022/10/27 01:18:19;;;;;;;14.10;8.73;;;;;;;9.45;100.00;99630.88;5003032;28;20042;-62
2022/10/27 01:21:01;;;;;;;12.50;8.98;;;;;;;9.42;100.00;99630.03;5003604;28;20068;-61
2022/10/27 01:23:50;;;;;;;16.45;8.73;;;;;;;9.55;100.00;99629.16;5004705;28;20060;-62
2022/10/27 01:26:38;;;;;;;17.05;8.48;;;;;;;9.58;100.00;99629.19;5003954;28;20727;-64
2022/10/27 01:29:33;;;;;;;11.80;8.57;;;;;;;9.52;100.00;99631.72;5003272;28;20154;-62
2022/10/27 01:32:33;;;;;;;12.95;8.40;;;;;;;9.50;100.00;99636.88;4985348;28;20046;-62
2022/10/27 01:35:11;;;;;;;9.82;7.05;;;;;;;9.44;100.00;99621.50;5004622;28;20441;-61
2022/10/27 01:37:44;;;;;;;9.50;7.18;;;;;;;9.36;100.00;99627.44;5002998;28;20042;-62
2022/10/27 01:40:22;;;;;;;11.10;7.18;;;;;;;9.32;100.00;99634.25;5002938;28;20045;-60
2022/10/27 01:43:25;;;;;;;14.18;7.88;;;;;;;9.34;100.00;99627.44;5003323;28;20626;-60
2022/10/27 01:45:53;;;;;;;11.60;7.10;;;;;;;9.25;100.00;99624.84;5001384;28;20153;-60
2022/10/27 01:48:19;;;;;;;10.55;7.03;;;;;;;9.17;100.00;99622.28;5000046;28;20116;-62
2022/10/27 01:50:45;;;;;;;12.48;7.05;;;;;;;9.13;100.00;99610.31;5002608;28;20042;-60
2022/10/27 01:53:12;;;;;;;9.38;6.97;;;;;;;9.25;100.00;99639.38;5001795;28;20511;-60
2022/10/27 01:56:12;;;;;;;11.23;7.03;;;;;;;9.30;100.00;99646.19;5002852;28;20491;-61
2022/10/27 01:59:00;;;;;;;11.68;7.70;;;;;;;9.20;100.00;99618.88;5002524;28;20038;-59
2022/10/27 02:01:50;;;;;;;9.23;7.10;;;;;;;9.28;100.00;99640.22;5002500;28;20417;-60
2022/10/27 02:04:38;;;;;;;8.88;6.45;;;;;;;9.29;100.00;99647.06;5001704;28;20124;-60
2022/10/27 02:07:15;;;;;;;11.05;6.93;;;;;;;9.25;100.00;99653.00;5001302;28;20038;-60
2022/10/27 02:10:20;;;;;;;14.40;7.28;;;;;;;9.18;100.00;99648.72;5002750;28;20101;-59
2022/10/27 02:12:46;;;;;;;10.18;7.18;;;;;;;9.11;100.00;99658.09;5000734;28;20521;-61
2022/10/27 02:15:32;;;;;;;11.88;7.32;;;;;;;9.08;100.00;99658.06;5003065;28;20050;-60
2022/10/27 02:18:15;;;;;;;16.48;8.98;;;;;;;9.03;100.00;99661.47;4986916;28;20064;-62
2022/10/27 02:20:44;;;;;;;16.63;10.65;;;;;;;8.91;100.00;99646.91;5001569;28;20504;-60
2022/10/27 02:23:15;;;;;;;15.30;10.15;;;;;;;8.94;100.00;99646.09;4998797;28;20046;-60
2022/10/27 02:25:54;;;;;;;18.33;10.43;;;;;;;8.99;100.00;99659.75;5001561;28;20037;-60
2022/10/27 02:28:29;;;;;;;15.02;8.77;;;;;;;8.96;100.00;99662.28;5001816;28;20049;-59
2022/10/27 02:30:59;;;;;;;15.27;8.93;;;;;;;8.92;100.00;99658.84;5000023;28;20046;-58
2022/10/27 02:33:24;;;;;;;19.55;9.70;;;;;;;8.91;100.00;99657.13;4998111;28;20037;-59
2022/10/27 02:35:51;;;;;;;19.38;8.45;;;;;;;8.79;100.00;99639.19;4996729;28;20096;-59
2022/10/27 02:38:17;;;;;;;19.45;8.73;;;;;;;8.75;100.00;99642.59;5002404;28;20982;-59
2022/10/27 02:40:43;;;;;;;17.23;8.80;;;;;;;8.84;100.00;99660.53;5002455;28;20052;-59
2022/10/27 02:43:09;;;;;;;21.40;9.77;;;;;;;8.80;100.00;99660.50;5000091;28;20092;-59
2022/10/27 02:45:35;;;;;;;17.52;8.93;;;;;;;8.81;100.00;99668.19;5002296;28;20160;-59
2022/10/27 02:48:00;;;;;;;19.30;8.68;;;;;;;8.79;100.00;99674.13;5000149;28;20033;-59
2022/10/27 02:50:26;;;;;;;12.68;7.80;;;;;;;8.75;100.00;99667.28;5000556;28;20078;-59
2022/10/27 02:52:51;;;;;;;16.02;7.88;;;;;;;8.71;100.00;99661.31;5000966;28;20056;-58
2022/10/27 02:55:16;;;;;;;20.20;10.13;;;;;;;8.69;100.00;99663.03;5001821;28;20423;-59
2022/10/27 02:57:45;;;;;;;16.50;8.23;;;;;;;8.56;100.00;99651.03;4999042;28;20046;-59
2022/10/27 03:00:11;;;;;;;17.10;8.77;;;;;;;8.51;100.00;99652.69;5000916;28;20408;-60
2022/10/27 03:02:36;;;;;;;16.23;8.25;;;;;;;8.60;100.00;99666.38;5000531;28;20137;-59
2022/10/27 03:05:02;;;;;;;13.20;8.50;;;;;;;8.62;100.00;99676.59;5000959;28;20572;-60
2022/10/27 03:07:27;;;;;;;13.05;7.88;;;;;;;8.67;100.00;99670.69;5015556;28;20046;-59
2022/10/27 03:09:53;;;;;;;14.63;8.30;;;;;;;8.64;100.00;99659.59;4983416;28;20062;-59
2022/10/27 03:12:19;;;;;;;17.27;7.70;;;;;;;8.68;100.00;99674.94;5000605;28;20408;-59
2022/10/27 03:14:44;;;;;;;12.68;7.80;;;;;;;8.78;100.00;99678.41;5000770;28;20038;-59
2022/10/27 03:17:10;;;;;;;15.75;8.70;;;;;;;8.69;100.00;99681.78;5000606;28;20458;-59
2022/10/27 03:19:35;;;;;;;15.18;8.50;;;;;;;8.66;100.00;99693.66;4999574;28;20049;-59
2022/10/27 03:22:01;;;;;;;17.48;6.85;;;;;;;8.59;100.00;99690.22;5000869;28;20042;-59
2022/10/27 03:24:26;;;;;;;14.65;8.00;;;;;;;8.55;100.00;99693.63;5002051;28;20049;-57
2022/10/27 03:26:52;;;;;;;10.25;6.57;;;;;;;8.57;100.00;99693.63;4995793;28;20124;-59
2022/10/27 03:29:17;;;;;;;13.38;7.63;;;;;;;8.40;100.00;99685.00;5000700;28;20046;-58
2022/10/27 03:31:43;;;;;;;11.80;6.70;;;;;;;8.51;100.00;99701.25;5000692;28;20485;-61
2022/10/27 03:34:08;;;;;;;20.23;7.53;;;;;;;8.31;100.00;99679.84;4998754;28;20042;-60
2022/10/27 03:36:34;;;;;;;11.52;7.18;;;;;;;8.45;100.00;99701.19;4999589;28;20045;-62
2022/10/27 03:38:59;;;;;;;14.13;8.27;;;;;;;8.49;100.00;99708.03;4996994;28;20037;-60
2022/10/27 03:41:25;;;;;;;15.73;9.07;;;;;;;8.58;100.00;99698.75;5000757;28;20038;-60
2022/10/27 03:43:50;;;;;;;10.73;7.70;;;;;;;8.79;100.00;99699.69;5001409;28;20076;-61
2022/10/27 03:46:16;;;;;;;10.57;7.85;;;;;;;9.04;100.00;99694.72;4996888;28;20074;-60
2022/10/27 03:48:42;;;;;;;12.20;6.50;;;;;;;9.34;100.00;99695.66;4999085;28;20592;-60
2022/10/27 03:51:08;;;;;;;9.60;7.43;;;;;;;9.58;100.00;99698.31;4999733;28;20944;-60
2022/10/27 03:53:34;;;;;;;8.85;5.22;;;;;;;9.67;100.00;99702.59;5018435;28;20038;-61
2022/10/27 03:55:59;;;;;;;8.32;4.85;;;;;;;9.72;100.00;99698.34;5001358;28;20048;-60
2022/10/27 03:58:25;;;;;;;6.53;5.80;;;;;;;9.73;100.00;99693.19;5003123;28;20068;-60
2022/10/27 04:00:50;;;;;;;7.85;5.22;;;;;;;9.74;100.00;99684.69;5005875;28;20041;-60
2022/10/27 04:03:16;;;;;;;7.65;5.05;;;;;;;9.77;100.00;99694.91;5019369;28;20107;-60
2022/10/27 04:05:42;;;;;;;9.73;5.63;;;;;;;9.61;100.00;99681.25;5003536;28;20765;-60
2022/10/27 04:08:07;;;;;;;6.90;4.32;;;;;;;9.65;100.00;99692.34;5005190;28;20042;-60
2022/10/27 04:10:35;;;;;;;10.85;4.60;;;;;;;9.61;100.00;99695.75;5017942;28;20054;-60
2022/10/27 04:13:01;;;;;;;10.40;5.40;;;;;;;9.67;100.00;99700.03;4996517;28;20534;-60
2022/10/27 04:15:27;;;;;;;7.15;4.20;;;;;;;9.63;100.00;99704.31;5003251;28;20042;-59
2022/10/27 04:17:58;;;;;;;6.00;4.20;;;;;;;9.55;100.00;99695.72;5000309;28;20054;-59
2022/10/27 04:20:25;;;;;;;14.02;5.00;;;;;;;9.64;100.00;99701.72;5004101;28;20041;-59
2022/10/27 04:22:51;;;;;;;6.70;4.90;;;;;;;9.83;100.00;99712.88;5004166;28;20580;-59
2022/10/27 04:25:16;;;;;;;10.00;4.50;;;;;;;9.81;100.00;99709.44;5003157;28;20057;-61
2022/10/27 04:27:41;;;;;;;7.95;5.43;;;;;;;9.72;100.00;99708.59;5000020;28;20048;-62
2022/10/27 04:30:07;;;;;;;7.45;4.70;;;;;;;9.52;100.00;99698.28;5003132;28;20045;-59
2022/10/27 04:32:33;;;;;;;8.43;4.85;;;;;;;9.52;100.00;99716.19;5002203;28;20192;-60
2022/10/27 04:34:59;;;;;;;9.10;4.55;;;;;;;9.43;100.00;99716.16;5002334;28;20049;-60
2022/10/27 04:37:25;;;;;;;10.65;6.40;;;;;;;9.38;100.00;99718.72;5004721;28;20673;-59
2022/10/27 04:39:51;;;;;;;7.95;4.93;;;;;;;9.27;100.00;99699.91;5019946;28;20065;-59
2022/10/27 04:42:16;;;;;;;7.47;5.20;;;;;;;9.18;100.00;99684.53;5004295;28;20030;-59
2022/10/27 04:44:42;;;;;;;5.78;4.90;;;;;;;9.24;100.00;99715.28;5002946;28;20030;-62
2022/10/27 04:47:07;;;;;;;9.73;4.70;;;;;;;9.23;100.00;99723.78;5004348;28;20038;-62
2022/10/27 04:49:33;;;;;;;8.68;5.47;;;;;;;9.11;100.00;99701.56;5003269;28;20077;-62
2022/10/27 04:51:58;;;;;;;5.00;4.40;;;;;;;9.17;100.00;99718.63;5004149;28;20081;-59
2022/10/27 04:54:24;;;;;;;7.45;5.75;;;;;;;9.23;100.00;99725.50;5003522;28;20038;-61
2022/10/27 04:56:50;;;;;;;9.00;4.68;;;;;;;9.39;100.00;99722.13;5004308;28;20524;-61
2022/10/27 04:59:15;;;;;;;10.68;5.03;;;;;;;9.47;100.00;99723.88;5003310;28;20066;-64
2022/10/27 05:01:41;;;;;;;8.85;4.85;;;;;;;9.56;100.00;99720.47;5005257;28;20041;-60
2022/10/27 05:04:06;;;;;;;9.65;5.25;;;;;;;9.59;100.00;99730.72;5003599;28;20045;-60
2022/10/27 05:06:32;;;;;;;7.40;4.85;;;;;;;9.47;100.00;99705.09;5004828;28;20037;-60
2022/10/27 05:08:57;;;;;;;10.10;4.88;;;;;;;9.58;100.00;99727.31;5002113;28;20052;-61
2022/10/27 05:11:23;;;;;;;5.53;4.63;;;;;;;9.58;100.00;99719.66;5003823;28;20054;-61
2022/10/27 05:13:50;;;;;;;6.00;4.30;;;;;;;9.62;100.00;99728.19;5003638;28;20042;-62
2022/10/27 05:16:16;;;;;;;9.35;5.30;;;;;;;9.62;100.00;99731.59;5006027;28;20038;-59
2022/10/27 05:18:42;;;;;;;11.07;4.50;;;;;;;9.54;100.00;99738.41;5002552;28;20042;-61
2022/10/27 05:21:08;;;;;;;7.25;5.07;;;;;;;9.40;100.00;99711.91;5002326;28;20042;-62
2022/10/27 05:23:33;;;;;;;7.93;4.90;;;;;;;9.45;100.00;99735.81;5001543;28;20716;-60
2022/10/27 05:25:59;;;;;;;6.20;4.57;;;;;;;9.30;100.00;99720.41;5002451;28;20048;-59
2022/10/27 05:28:25;;;;;;;6.13;4.72;;;;;;;9.34;100.00;99737.47;5001886;28;20073;-60
2022/10/27 05:30:55;;;;;;;9.35;4.90;;;;;;;9.28;100.00;99739.16;5001085;28;20129;-65
2022/10/27 05:33:21;;;;;;;8.25;4.60;;;;;;;9.23;100.00;99740.84;5002492;28;20152;-65
2022/10/27 05:35:47;;;;;;;7.88;5.82;;;;;;;9.17;100.00;99750.19;5001825;28;20489;-64
2022/10/27 05:38:12;;;;;;;9.80;5.38;;;;;;;9.17;100.00;99744.22;5001989;28;20057;-65
2022/10/27 05:40:38;;;;;;;8.75;5.55;;;;;;;9.20;100.00;99746.81;5001964;28;20089;-65
2022/10/27 05:43:03;;;;;;;8.10;5.15;;;;;;;9.23;100.00;99753.63;5002081;28;20133;-65
2022/10/27 05:45:29;;;;;;;11.30;6.40;;;;;;;9.13;100.00;99743.34;5002348;28;20045;-67
2022/10/27 05:47:57;;;;;;;8.15;4.90;;;;;;;9.23;100.00;99756.19;5002305;28;20473;-66
2022/10/27 05:50:23;;;;;;;10.43;5.78;;;;;;;9.26;100.00;99762.19;4998888;28;20569;-65
2022/10/27 05:52:48;;;;;;;6.28;4.78;;;;;;;9.17;100.00;99737.41;5000122;28;20048;-65
2022/10/27 05:55:14;;;;;;;11.52;5.32;;;;;;;9.29;100.00;99744.28;5002153;28;20092;-65
2022/10/27 05:57:39;;;;;;;8.68;4.43;;;;;;;9.54;100.00;99768.28;5002888;28;20128;-65
2022/10/27 06:00:07;;;;;;;10.88;4.90;;;;;;;9.64;100.00;99762.31;4999943;28;20084;-72
2022/10/27 06:02:33;;;;;;;7.53;4.20;;;;;;;9.63;100.00;99743.53;5002245;28;20042;-72
2022/10/27 06:04:58;;;;;;;11.88;5.10;;;;;;;9.95;100.00;99756.41;5016679;28;20115;-72
2022/10/27 06:07:24;;;;;;;8.77;5.20;;;;;;;10.15;100.00;99764.16;5001289;28;20469;-71
2022/10/27 06:09:50;;;;;;;6.53;3.95;;;;;;;10.21;100.00;99753.06;5001755;28;20058;-70
2022/10/27 06:12:15;;;;;;;9.30;5.35;;;;;;;10.36;100.00;99769.28;5001094;28;20048;-70
2022/10/27 06:14:41;;;;;;;8.80;4.53;;;;;;;10.42;100.00;99769.28;5001303;28;20088;-72
2022/10/27 06:17:06;;;;;;;5.60;4.38;;;;;;;10.47;100.00;99774.44;5001957;28;20070;-76
2022/10/27 06:19:32;;;;;;;9.48;4.63;;;;;;;10.53;100.00;99765.00;5001190;28;20077;-73
2022/10/27 06:21:57;;;;;;;8.23;4.25;;;;;;;10.67;100.00;99774.41;4993535;28;20062;-76
2022/10/27 06:24:23;;;;;;;6.63;4.25;;;;;;;10.61;100.00;99759.88;4998444;28;20374;-73
2022/10/27 06:26:48;;;;;;;8.02;4.50;;;;;;;10.90;100.00;99782.94;4999877;28;20041;-78
2022/10/27 06:29:14;;;;;;;6.05;4.65;;;;;;;11.07;100.00;99788.03;4997238;28;20544;-73
2022/10/27 06:31:41;;;;;;;8.60;4.15;;;;;;;11.09;100.00;99771.75;4997215;28;20046;-72
2022/10/27 06:34:07;;;;;;;9.73;3.72;;;;;;;11.20;100.00;99776.88;5001145;28;20037;-75
2022/10/27 06:36:33;;;;;;;9.27;4.47;;;;;;;11.43;100.00;99793.91;4993960;28;20575;-70
2022/10/27 06:38:58;;;;;;;6.47;3.90;;;;;;;11.55;100.00;99802.41;4999392;28;20049;-70
2022/10/27 06:41:24;;;;;;;8.20;4.00;;;;;;;11.72;100.00;99798.94;4996802;28;20050;-71
2022/10/27 06:43:49;;;;;;;6.65;4.97;;;;;;;11.85;100.00;99810.00;4998071;28;20383;-71
2022/10/27 06:46:15;;;;;;;6.13;4.40;;;;;;;11.96;100.00;99804.81;5000250;28;20065;-73
2022/10/27 06:48:41;;;;;;;7.93;3.63;;;;;;;12.01;100.00;99811.63;4992434;28;20037;-72
2022/10/27 06:51:07;;;;;;;6.88;3.92;;;;;;;12.14;100.00;99810.69;4996420;28;20128;-73
2022/10/27 06:53:33;;;;;;;5.20;3.75;;;;;;;12.27;100.00;99808.88;4988470;28;20041;-70
2022/10/27 06:56:00;;;;;;;6.45;4.40;;;;;;;12.37;100.00;99810.53;4991454;28;20038;-71
2022/10/27 06:58:25;;;;;;;6.93;3.97;;;;;;;12.49;100.00;99813.00;4990497;28;20081;-72
2022/10/27 07:00:51;;;;;;;7.10;4.95;;;;;;;12.60;100.00;99815.50;4990113;28;20038;-72
2022/10/27 07:03:17;;;;;;;8.45;5.18;;;;;;;12.71;100.00;99814.53;4999858;28;20045;-72
2022/10/27 07:05:42;;;;;;;7.22;4.50;;;;;;;12.80;100.00;99818.75;4993222;28;20077;-71
2022/10/27 07:08:08;;;;;;;6.38;4.43;;;;;;;12.95;100.00;99825.47;4998450;28;20069;-69
2022/10/27 07:10:33;;;;;;;7.45;5.45;;;;;;;12.96;100.00;99822.03;4993258;28;20060;-70
2022/10/27 07:13:01;;;;;;;6.50;5.13;;;;;;;13.10;100.00;99821.09;4996028;28;20092;-70
2022/10/27 07:15:32;;;;;;;7.35;4.45;;;;;;;13.31;100.00;99830.31;4995351;28;20041;-70
2022/10/27 07:18:05;;;;;;;5.75;4.53;;;;;;;13.48;100.00;99825.81;4991870;28;20120;-72
2022/10/27 07:20:33;;;;;;;5.35;4.30;;;;;;;13.55;100.00;99821.44;5015092;28;20434;-71
2022/10/27 07:22:59;;;;;;;8.55;4.97;;;;;;;13.72;100.00;99833.25;4994434;28;20110;-71
2022/10/27 07:25:26;;;;;;;8.15;4.22;;;;;;;13.87;100.00;99831.34;4983578;28;20076;-72
2022/10/27 07:27:52;;;;;;;7.03;5.00;;;;;;;13.94;100.00;99831.25;4978494;28;20046;-72
2022/10/27 07:30:20;;;;;;;9.30;4.70;;;;;;;14.13;100.00;99839.59;4992696;28;20076;-72
2022/10/27 07:32:46;;;;;;;8.65;5.10;;;;;;;14.30;100.00;99834.19;4996989;28;20046;-71
2022/10/27 07:35:11;;;;;;;8.30;5.25;;;;;;;14.35;100.00;99819.47;5000233;28;20108;-73
2022/10/27 07:37:45;;;;;;;5.20;4.13;;;;;;;14.52;100.00;99836.44;4996088;28;20056;-73
2022/10/27 07:40:12;;;;;;;7.80;5.47;;;;;;;14.63;100.00;99839.72;4993214;28;20081;-71
2022/10/27 07:42:48;;;;;;;9.25;4.80;;;;;;;14.71;100.00;99838.75;4996224;28;20077;-71
2022/10/27 07:45:16;;;;;;;6.93;4.88;;;;;;;14.74;100.00;99841.25;4990492;28;20037;-71
2022/10/27 07:47:48;;;;;;;6.10;5.05;;;;;;;14.78;100.00;99850.66;4992076;28;20042;-67
2022/10/27 07:50:14;;;;;;;8.10;4.97;;;;;;;14.67;100.00;99834.50;4991834;28;20038;-68
2022/10/27 07:52:41;;;;;;;11.68;5.47;;;;;;;14.75;100.00;99849.00;4995586;28;20045;-69
2022/10/27 07:55:08;;;;;;;8.48;5.18;;;;;;;14.77;100.00;99851.53;4997253;28;20038;-67
2022/10/27 07:57:33;;;;;;;13.73;5.80;;;;;;;14.68;100.00;99842.22;4996859;28;20072;-70
2022/10/27 07:59:59;;;;;;;11.20;5.78;;;;;;;14.78;100.00;99858.41;4996685;28;20053;-68
2022/10/27 08:02:24;;;;;;;8.05;4.70;;;;;;;14.84;100.00;99835.06;4994045;28;20050;-68
2022/10/27 08:04:50;;;;;;;13.45;5.88;;;;;;;14.98;100.00;99852.03;4997205;28;20194;-69
2022/10/27 08:07:16;;;;;;;10.95;6.00;;;;;;;15.09;100.00;99851.84;4997744;28;20092;-69
2022/10/27 08:09:42;;;;;;;10.85;5.78;;;;;;;15.19;100.00;99855.94;4996716;28;20139;-68
2022/10/27 08:12:08;;;;;;;7.50;5.57;;;;;;;15.31;100.00;99857.50;4994065;28;20041;-68
2022/10/27 08:14:34;;;;;;;8.63;5.57;;;;;;;15.23;100.00;99862.81;4992236;28;20046;-69
2022/10/27 08:16:59;;;;;;;12.88;5.88;;;;;;;15.30;100.00;99856.63;4996639;28;20121;-70
2022/10/27 08:19:26;;;;;;;13.88;6.70;;;;;;;15.38;100.00;99857.34;4992962;28;20537;-68
2022/10/27 08:21:51;;;;;;;11.32;7.30;;;;;;;15.44;100.00;99861.53;4992226;28;20042;-68
2022/10/27 08:24:17;;;;;;;13.23;8.13;;;;;;;15.45;100.00;99858.06;4996147;28;20535;-69
2022/10/27 08:26:43;;;;;;;9.85;7.18;;;;;;;15.54;100.00;99861.34;4997259;28;20064;-67
2022/10/27 08:29:08;;;;;;;11.27;7.35;;;;;;;15.49;100.00;99851.94;4997356;28;20477;-68
2022/10/27 08:31:34;;;;;;;10.02;7.03;;;;;;;15.35;100.00;99854.81;4997953;28;20030;-68
2022/10/27 08:33:59;;;;;;;11.77;6.90;;;;;;;15.48;100.00;99848.53;4996708;28;20137;-68
2022/10/27 08:36:25;;;;;;;7.55;6.75;;;;;;;15.66;100.00;99846.50;4991766;28;20988;-69
2022/10/27 08:38:50;;;;;;;9.75;6.50;;;;;;;15.65;100.00;99834.47;5013661;28;20171;-70
2022/10/27 08:41:37;;;;;;;12.35;7.10;;;;;;;15.81;100.00;99856.53;5000190;28;20069;-69
2022/10/27 08:44:28;;;;;;;9.18;7.03;;;;;;;15.75;100.00;99854.91;5015594;28;20568;-70
2022/10/27 08:46:58;;;;;;;9.07;6.57;;;;;;;15.77;100.00;99844.53;4999930;28;20038;-69
2022/10/27 08:49:28;;;;;;;10.30;7.60;;;;;;;16.02;100.00;99857.81;5001375;28;20033;-70
2022/10/27 08:52:00;;;;;;;9.05;6.75;;;;;;;16.10;100.00;99855.91;5000009;28;20607;-69
2022/10/27 08:54:26;;;;;;;6.95;6.10;;;;;;;16.28;100.00;99858.97;4999939;28;20069;-68
2022/10/27 08:56:57;;;;;;;10.38;6.90;;;;;;;16.28;100.00;99864.13;4998362;28;20591;-70
2022/10/27 08:59:24;;;;;;;9.98;7.65;;;;;;;16.35;100.00;99855.34;4997350;28;20050;-69
2022/10/27 09:02:05;;;;;;;13.13;7.50;;;;;;;16.41;100.00;99857.78;5011534;28;20488;-69
2022/10/27 09:04:58;;;;;;;10.75;7.90;;;;;;;16.41;100.00;99854.34;4998520;28;20065;-71
2022/10/27 09:07:38;;;;;;;10.77;7.82;;;;;;;16.50;100.00;99861.91;4995500;28;20053;-70
2022/10/27 09:10:19;;;;;;;8.98;7.35;;;;;;;16.58;100.00;99852.25;4999572;28;20084;-70
2022/10/27 09:13:09;;;;;;;11.70;8.15;;;;;;;16.71;100.00;99855.41;4997913;28;20034;-69
2022/10/27 09:15:49;;;;;;;10.10;8.15;;;;;;;16.87;100.00;99854.13;5000252;28;20048;-68
2022/10/27 09:18:28;;;;;;;13.77;9.32;;;;;;;16.89;100.00;99852.34;4999805;28;20100;-68
2022/10/27 09:20:59;;;;;;;19.20;8.98;;;;;;;16.89;100.00;99868.72;5000351;28;20149;-70
2022/10/27 09:23:35;;;;;;;12.20;8.35;;;;;;;17.08;100.00;99863.94;5013738;28;20508;-68
2022/10/27 09:26:03;;;;;;;17.05;10.32;;;;;;;16.99;100.00;99865.91;4992187;28;20078;-69
2022/10/27 09:28:51;;;;;;;12.20;10.05;;;;;;;17.09;100.00;99864.81;4987628;28;20113;-68
2022/10/27 09:31:34;;;;;;;12.70;9.30;;;;;;;17.19;100.00;99864.50;4990501;28;20073;-69
2022/10/27 09:34:25;;;;;;;17.65;9.73;;;;;;;17.24;100.00;99860.06;4990790;28;20042;-69
2022/10/27 09:36:51;;;;;;;10.95;7.75;;;;;;;17.25;100.00;99848.81;4990461;28;20559;-70
2022/10/27 09:39:16;;;;;;;11.25;8.63;;;;;;;17.43;100.00;99865.63;4996521;28;20282;-69
2022/10/27 09:41:42;;;;;;;9.27;8.35;;;;;;;17.38;100.00;99849.34;4997650;28;20053;-69
2022/10/27 09:44:21;;;;;;;13.13;8.75;;;;;;;17.54;100.00;99865.31;5012125;28;20049;-69
2022/10/27 09:46:52;;;;;;;12.65;7.90;;;;;;;17.49;100.00;99856.81;4998988;28;20033;-69
2022/10/27 09:49:20;;;;;;;9.60;8.65;;;;;;;17.54;100.00;99866.16;4998013;28;20064;-69
2022/10/27 09:51:53;;;;;;;11.27;8.13;;;;;;;17.69;100.00;99867.53;4998705;28;20042;-70
2022/10/27 09:54:38;;;;;;;11.23;8.07;;;;;;;17.81;100.00;99862.00;4995317;28;20042;-69
2022/10/27 09:57:14;;;;;;;10.43;7.68;;;;;;;17.70;100.00;99849.31;4997965;28;20216;-68
2022/10/27 09:59:40;;;;;;;10.23;7.47;;;;;;;18.00;100.00;99852.78;4996918;28;20038;-72
2022/10/27 10:02:24;;;;;;;8.50;6.95;;;;;;;18.20;100.00;99855.63;4996169;28;20140;-69
2022/10/27 10:04:49;;;;;;;9.40;8.02;;;;;;;18.29;100.00;99856.25;5012737;28;20049;-69
2022/10/27 10:07:31;;;;;;;10.25;5.55;;;;;;;18.24;100.00;99856.41;5017831;28;20045;-69
2022/10/27 10:10:30;;;;;;;10.60;5.45;;;;;;;18.39;100.00;99857.66;5019534;28;20057;-69
2022/10/27 10:13:02;;;;;;;10.13;5.30;;;;;;;18.54;100.00;99858.03;5014964;28;20061;-70
2022/10/27 10:15:29;;;;;;;9.05;5.57;;;;;;;18.66;100.00;99859.44;5020616;28;20037;-70
2022/10/27 10:17:57;;;;;;;7.60;5.20;;;;;;;18.69;100.00;99854.97;5021009;28;20045;-69
2022/10/27 10:20:32;;;;;;;6.63;5.95;;;;;;;18.75;100.00;99847.88;5017531;28;20674;-68
2022/10/27 10:23:01;;;;;;;7.93;5.68;;;;;;;18.91;100.00;99851.69;5019954;28;20080;-68
2022/10/27 10:25:31;;;;;;;9.27;4.68;;;;;;;18.83;100.00;99859.72;5020546;28;20147;-69
2022/10/27 10:28:04;;;;;;;6.72;4.88;;;;;;;18.85;100.00;99852.72;5020196;28;20412;-70
2022/10/27 10:30:36;;;;;;;8.40;4.15;;;;;;;18.67;100.00;99855.94;5033143;28;20041;-69
2022/10/27 10:33:05;;;;;;;6.05;3.47;;;;;;;18.54;100.00;99836.44;5020659;28;20053;-68
2022/10/27 10:35:41;;;;;;;8.75;4.38;;;;;;;18.77;100.00;99854.72;5021267;28;20519;-69
2022/10/27 10:38:22;;;;;;;9.13;3.63;;;;;;;18.78;100.00;99853.84;5037377;28;21278;-70
2022/10/27 10:41:11;;;;;;;7.57;3.97;;;;;;;18.78;100.00;99848.63;5036176;28;20098;-69
2022/10/27 10:43:39;;;;;;;9.10;3.83;;;;;;;18.90;100.00;99843.03;5016412;28;20913;-69
2022/10/27 10:46:10;;;;;;;10.13;4.10;;;;;;;18.93;100.00;99848.09;5018971;28;20046;-69
2022/10/27 10:48:46;;;;;;;6.25;3.60;;;;;;;18.91;100.00;99833.47;5020690;28;20095;-72
2022/10/27 10:51:22;;;;;;;7.85;4.05;;;;;;;19.06;100.00;99849.41;5022988;28;20062;-69
2022/10/27 10:53:50;;;;;;;8.00;3.58;;;;;;;19.02;100.00;99842.59;5020898;28;20092;-69
2022/10/27 10:56:28;;;;;;;5.65;4.30;;;;;;;18.90;100.00;99824.84;5020343;28;20065;-69
2022/10/27 10:59:06;;;;;;;5.32;3.20;;;;;;;18.96;100.00;99824.63;5021048;28;20071;-69
2022/10/27 11:02:01;;;;;;;7.70;4.40;;;;;;;19.11;100.00;99847.50;5022103;28;20053;-69
2022/10/27 11:04:30;;;;;;;9.73;3.97;;;;;;;19.28;100.00;99838.25;5019980;28;20038;-70
2022/10/27 11:07:01;;;;;;;5.55;3.28;;;;;;;19.29;100.00;99835.63;5037540;28;20077;-72
2022/10/27 11:09:38;;;;;;;5.45;3.33;;;;;;;19.33;100.00;99841.56;5017134;28;20037;-71
2022/10/27 11:12:14;;;;;;;7.97;3.83;;;;;;;19.33;100.00;99833.75;5015206;28;20132;-71
2022/10/27 11:14:41;;;;;;;10.52;5.13;;;;;;;19.33;100.00;99836.34;5018822;28;20045;-71
2022/10/27 11:17:09;;;;;;;9.85;4.45;;;;;;;19.40;100.00;99828.28;5020716;28;20064;-69
2022/10/27 11:19:39;;;;;;;6.88;4.35;;;;;;;19.40;100.00;99804.88;5017592;28;20488;-64
2022/10/27 11:22:15;;;;;;;5.97;5.05;;;;;;;19.48;100.00;99826.28;5018614;28;20038;-64
2022/10/27 11:25:07;;;;;;;7.38;4.78;;;;;;;19.61;100.00;99829.28;5014999;28;20041;-67
2022/10/27 11:27:48;;;;;;;8.25;3.90;;;;;;;19.59;100.00;99821.56;5010612;28;20072;-65
2022/10/27 11:30:26;;;;;;;7.63;4.05;;;;;;;19.68;100.00;99828.19;5032326;28;20049;-67
2022/10/27 11:33:08;;;;;;;6.50;4.25;;;;;;;19.70;100.00;99821.16;5017417;28;20114;-66
2022/10/27 11:35:48;;;;;;;10.75;4.68;;;;;;;19.75;100.00;99820.97;5016439;28;20136;-68
2022/10/27 11:38:32;;;;;;;10.30;4.40;;;;;;;19.75;100.00;99823.56;5016560;28;20047;-67